Hiawatha, IA (52233)

9:53 PM CDT on September 03, 2015 (GMT -0500)
The Howling Wolves | | Change Station
CLOSE
Current Station
Personal Weather Station
Location: Cedar Rapids, IA
Elevation: 860 ft
Nearby Weather Stations

Elev 860 ft 42.05 °N, 91.66 °W | Updated 30 seconds ago

Partly Cloudy
Partly Cloudy
76.8 °F
Feels Like 77 °F
N
0.0
Wind Variable Wind from West
Gusts 0.0 mph

Today
High -- | Low -- °F
--% Chance of Precip.
Yesterday
High -- | Low -- °F
Precip. -- in
6:34 AM 7:37 PM
Waning Gibbous, 64% visible
Pressure 29.88 in
Visibility 9.0 miles
Clouds Mostly Cloudy 11000 ft
Heat Index 77 °F
Dew Point 77 °F
Humidity 99%
Rainfall 0.00 in
Snow Depth Not available.
UV 0 out of 12
Pollen 10.10 out of 12
Air Quality Not available.
Flu Activity Not available.
METAR KCID 040152Z 17003KT 9SM BKN110 24/24 A2990 RMK AO2 SLP118 T02440239
Pressure 29.88 in
Visibility 9.0 miles
Clouds Mostly Cloudy 11000 ft
Heat Index 77 °F
Dew Point 77 °F
Humidity 99%
Rainfall 0.00 in
Snow Depth Not available.
UV 0 out of 12
Pollen 10.10 out of 12
Air Quality Not available.
Flu Activity Not available.
METAR KCID 040152Z 17003KT 9SM BKN110 24/24 A2990 RMK AO2 SLP118 T02440239

10-Day Weather Forecast

×

Almanac

Astronomy

Sep. 03, 2015 Rise Set
Actual Time
Civil Twilight
Nautical Twilight
Astronomical Twilight
Moon
Length of Visible Light
Length of Day
Tomorrow will be .
, % of the Moon is Illuminated

Today's Extremes

State Highs State Lows

Community

WunderPhotos

Upload Photos

1,852,106 photos uploaded!

WunderBlogs® & News

Nearby

Air Quality

  Air Quality AQ Index Pollutant
Not available.

Snow Depth

Station Depth Elevation

Earthquake Activity

City Distance Mag. Time & Date
Minimum magnitude displayed is 2.5.

Coastal Water Temperatures

Place Temperature

Stations

Nearby Weather Stations

Station Location Temp. Windchill Dew Point Humidity Wind Precip. Elev Updated Type